sensor_id;sensor_type;location;lat;lon;timestamp;pressure;altitude;pressure_sealevel;temperature;humidity
53546;BME280;39432;51.902;10.844;2023-09-19T00:02:01;98622.56;;;18.64;100.00
53546;BME280;39432;51.902;10.844;2023-09-19T00:04:54;98613.78;;;18.24;100.00
53546;BME280;39432;51.902;10.844;2023-09-19T00:07:44;98618.88;;;18.51;100.00
53546;BME280;39432;51.902;10.844;2023-09-19T00:10:35;98617.50;;;18.36;100.00
53546;BME280;39432;51.902;10.844;2023-09-19T00:13:27;98621.03;;;18.46;100.00
53546;BME280;39432;51.902;10.844;2023-09-19T00:16:18;98628.44;;;18.33;100.00
53546;BME280;39432;51.902;10.844;2023-09-19T00:19:09;98622.34;;;18.10;100.00
53546;BME280;39432;51.902;10.844;2023-09-19T00:22:03;98627.28;;;18.34;100.00
53546;BME280;39432;51.902;10.844;2023-09-19T00:24:54;98631.63;;;18.43;100.00
53546;BME280;39432;51.902;10.844;2023-09-19T00:27:45;98624.72;;;18.58;100.00
53546;BME280;39432;51.902;10.844;2023-09-19T00:30:37;98620.25;;;18.75;100.00
53546;BME280;39432;51.902;10.844;2023-09-19T00:33:28;98618.13;;;18.72;100.00
53546;BME280;39432;51.902;10.844;2023-09-19T00:36:19;98619.31;;;18.91;100.00
53546;BME280;39432;51.902;10.844;2023-09-19T00:39:13;98623.56;;;18.89;100.00
53546;BME280;39432;51.902;10.844;2023-09-19T00:42:04;98623.16;;;18.99;100.00
53546;BME280;39432;51.902;10.844;2023-09-19T00:44:55;98622.75;;;19.30;100.00
53546;BME280;39432;51.902;10.844;2023-09-19T00:47:48;98636.94;;;18.87;100.00
53546;BME280;39432;51.902;10.844;2023-09-19T00:50:41;98632.84;;;18.63;100.00
53546;BME280;39432;51.902;10.844;2023-09-19T00:53:32;98629.94;;;18.51;100.00
53546;BME280;39432;51.902;10.844;2023-09-19T00:56:25;98629.69;;;18.44;100.00
53546;BME280;39432;51.902;10.844;2023-09-19T00:59:15;98638.97;;;18.39;100.00
53546;BME280;39432;51.902;10.844;2023-09-19T01:02:06;98635.91;;;18.41;100.00
53546;BME280;39432;51.902;10.844;2023-09-19T01:04:57;98641.28;;;18.37;100.00
53546;BME280;39432;51.902;10.844;2023-09-19T01:07:48;98648.00;;;18.28;100.00
53546;BME280;39432;51.902;10.844;2023-09-19T01:10:52;98651.63;;;18.20;100.00
53546;BME280;39432;51.902;10.844;2023-09-19T01:13:58;98649.56;;;18.08;100.00
53546;BME280;39432;51.902;10.844;2023-09-19T01:16:55;98654.25;;;18.07;100.00
53546;BME280;39432;51.902;10.844;2023-09-19T01:20:11;98655.91;;;18.08;100.00
53546;BME280;39432;51.902;10.844;2023-09-19T01:23:12;98651.00;;;18.05;100.00
53546;BME280;39432;51.902;10.844;2023-09-19T01:26:11;98658.53;;;17.96;100.00
53546;BME280;39432;51.902;10.844;2023-09-19T01:29:23;98654.97;;;17.87;100.00
53546;BME280;39432;51.902;10.844;2023-09-19T01:32:23;98656.31;;;17.81;100.00
53546;BME280;39432;51.902;10.844;2023-09-19T01:35:14;98652.69;;;17.89;100.00
53546;BME280;39432;51.902;10.844;2023-09-19T01:38:05;98651.06;;;17.79;100.00
53546;BME280;39432;51.902;10.844;2023-09-19T01:41:03;98652.09;;;17.75;100.00
53546;BME280;39432;51.902;10.844;2023-09-19T01:43:59;98662.47;;;17.69;100.00
53546;BME280;39432;51.902;10.844;2023-09-19T01:46:55;98659.53;;;17.65;100.00
53546;BME280;39432;51.902;10.844;2023-09-19T01:49:55;98665.88;;;17.57;100.00
53546;BME280;39432;51.902;10.844;2023-09-19T01:52:56;98673.25;;;17.53;100.00
53546;BME280;39432;51.902;10.844;2023-09-19T01:55:49;98673.56;;;17.43;100.00
53546;BME280;39432;51.902;10.844;2023-09-19T01:58:43;98671.94;;;17.33;100.00
53546;BME280;39432;51.902;10.844;2023-09-19T02:01:36;98677.47;;;17.42;100.00
53546;BME280;39432;51.902;10.844;2023-09-19T02:04:27;98670.97;;;17.38;100.00
53546;BME280;39432;51.902;10.844;2023-09-19T02:07:20;98676.00;;;17.27;100.00
53546;BME280;39432;51.902;10.844;2023-09-19T02:10:11;98691.47;;;17.20;100.00
53546;BME280;39432;51.902;10.844;2023-09-19T02:13:01;98689.50;;;17.20;100.00
53546;BME280;39432;51.902;10.844;2023-09-19T02:15:53;98686.75;;;17.20;100.00
53546;BME280;39432;51.902;10.844;2023-09-19T02:18:43;98684.94;;;17.16;100.00
53546;BME280;39432;51.902;10.844;2023-09-19T02:21:34;98690.44;;;17.07;100.00
53546;BME280;39432;51.902;10.844;2023-09-19T02:24:30;98681.00;;;17.08;100.00
53546;BME280;39432;51.902;10.844;2023-09-19T02:27:20;98692.72;;;17.13;100.00
53546;BME280;39432;51.902;10.844;2023-09-19T02:30:13;98689.97;;;17.05;100.00
53546;BME280;39432;51.902;10.844;2023-09-19T02:33:08;98701.03;;;17.05;100.00
53546;BME280;39432;51.902;10.844;2023-09-19T02:35:59;98705.88;;;16.99;100.00
53546;BME280;39432;51.902;10.844;2023-09-19T02:38:51;98711.91;;;16.93;100.00
53546;BME280;39432;51.902;10.844;2023-09-19T02:41:44;98718.22;;;16.93;100.00
53546;BME280;39432;51.902;10.844;2023-09-19T02:44:34;98722.44;;;16.82;100.00
53546;BME280;39432;51.902;10.844;2023-09-19T02:47:25;98716.63;;;16.92;100.00
53546;BME280;39432;51.902;10.844;2023-09-19T02:50:16;98721.44;;;16.86;100.00
53546;BME280;39432;51.902;10.844;2023-09-19T02:53:07;98738.22;;;16.90;100.00
53546;BME280;39432;51.902;10.844;2023-09-19T02:55:58;98731.19;;;16.84;100.00
53546;BME280;39432;51.902;10.844;2023-09-19T02:58:51;98735.88;;;16.75;100.00
53546;BME280;39432;51.902;10.844;2023-09-19T03:01:43;98738.59;;;16.66;100.00
53546;BME280;39432;51.902;10.844;2023-09-19T03:04:35;98729.06;;;16.81;100.00
53546;BME280;39432;51.902;10.844;2023-09-19T03:07:26;98734.44;;;16.77;100.00
53546;BME280;39432;51.902;10.844;2023-09-19T03:10:17;98728.97;;;16.64;100.00
53546;BME280;39432;51.902;10.844;2023-09-19T03:13:08;98741.16;;;16.63;100.00
53546;BME280;39432;51.902;10.844;2023-09-19T03:16:01;98737.41;;;16.58;100.00
53546;BME280;39432;51.902;10.844;2023-09-19T03:18:53;98740.53;;;16.66;100.00
53546;BME280;39432;51.902;10.844;2023-09-19T03:21:43;98745.69;;;16.58;100.00
53546;BME280;39432;51.902;10.844;2023-09-19T03:24:37;98750.28;;;16.63;100.00
53546;BME280;39432;51.902;10.844;2023-09-19T03:27:27;98753.97;;;16.58;100.00
53546;BME280;39432;51.902;10.844;2023-09-19T03:30:18;98757.41;;;16.55;100.00
53546;BME280;39432;51.902;10.844;2023-09-19T03:33:11;98755.25;;;16.52;100.00
53546;BME280;39432;51.902;10.844;2023-09-19T03:36:03;98764.06;;;16.54;100.00
53546;BME280;39432;51.902;10.844;2023-09-19T03:38:54;98769.59;;;16.54;100.00
53546;BME280;39432;51.902;10.844;2023-09-19T03:41:46;98764.88;;;16.55;100.00
53546;BME280;39432;51.902;10.844;2023-09-19T03:44:37;98763.69;;;16.47;100.00
53546;BME280;39432;51.902;10.844;2023-09-19T03:47:27;98769.34;;;16.42;100.00
53546;BME280;39432;51.902;10.844;2023-09-19T03:50:22;98774.72;;;16.47;100.00
53546;BME280;39432;51.902;10.844;2023-09-19T03:53:13;98769.91;;;16.30;100.00
53546;BME280;39432;51.902;10.844;2023-09-19T03:56:03;98769.31;;;16.33;100.00
53546;BME280;39432;51.902;10.844;2023-09-19T03:58:55;98769.47;;;16.37;100.00
53546;BME280;39432;51.902;10.844;2023-09-19T04:01:45;98773.00;;;16.29;100.00
53546;BME280;39432;51.902;10.844;2023-09-19T04:04:37;98771.38;;;16.28;100.00
53546;BME280;39432;51.902;10.844;2023-09-19T04:07:30;98772.00;;;16.25;100.00
53546;BME280;39432;51.902;10.844;2023-09-19T04:10:22;98774.16;;;16.28;100.00
53546;BME280;39432;51.902;10.844;2023-09-19T04:13:14;98774.28;;;16.23;100.00
53546;BME280;39432;51.902;10.844;2023-09-19T04:16:04;98788.44;;;16.30;100.00
53546;BME280;39432;51.902;10.844;2023-09-19T04:18:54;98786.44;;;16.22;100.00
53546;BME280;39432;51.902;10.844;2023-09-19T04:21:45;98782.69;;;16.18;100.00
53546;BME280;39432;51.902;10.844;2023-09-19T04:24:38;98793.09;;;16.21;100.00
53546;BME280;39432;51.902;10.844;2023-09-19T04:27:29;98797.63;;;16.17;100.00
53546;BME280;39432;51.902;10.844;2023-09-19T04:30:19;98796.84;;;16.02;100.00
53546;BME280;39432;51.902;10.844;2023-09-19T04:33:09;98805.59;;;15.96;100.00
53546;BME280;39432;51.902;10.844;2023-09-19T04:36:02;98814.66;;;15.96;100.00
53546;BME280;39432;51.902;10.844;2023-09-19T04:39:14;98813.91;;;15.82;100.00
53546;BME280;39432;51.902;10.844;2023-09-19T04:42:08;98821.25;;;15.87;100.00
53546;BME280;39432;51.902;10.844;2023-09-19T04:45:01;98830.06;;;15.75;100.00
53546;BME280;39432;51.902;10.844;2023-09-19T04:47:53;98835.91;;;15.73;100.00
53546;BME280;39432;51.902;10.844;2023-09-19T04:50:44;98833.56;;;15.67;100.00
53546;BME280;39432;51.902;10.844;2023-09-19T04:53:34;98832.94;;;15.70;100.00
53546;BME280;39432;51.902;10.844;2023-09-19T04:56:25;98812.91;;;15.78;100.00
53546;BME280;39432;51.902;10.844;2023-09-19T04:59:18;98831.09;;;15.79;100.00
53546;BME280;39432;51.902;10.844;2023-09-19T05:02:08;98838.28;;;15.66;100.00
53546;BME280;39432;51.902;10.844;2023-09-19T05:04:59;98833.84;;;15.79;100.00
53546;BME280;39432;51.902;10.844;2023-09-19T05:07:50;98842.31;;;15.83;100.00
53546;BME280;39432;51.902;10.844;2023-09-19T05:10:42;98848.66;;;15.69;100.00
53546;BME280;39432;51.902;10.844;2023-09-19T05:13:32;98849.47;;;15.70;100.00
53546;BME280;39432;51.902;10.844;2023-09-19T05:16:25;98842.72;;;15.76;100.00
53546;BME280;39432;51.902;10.844;2023-09-19T05:19:16;98844.22;;;15.82;100.00
53546;BME280;39432;51.902;10.844;2023-09-19T05:22:06;98847.66;;;16.01;100.00
53546;BME280;39432;51.902;10.844;2023-09-19T05:24:56;98850.78;;;16.08;100.00
53546;BME280;39432;51.902;10.844;2023-09-19T05:27:46;98853.78;;;15.98;100.00
53546;BME280;39432;51.902;10.844;2023-09-19T05:30:38;98848.97;;;16.04;100.00
53546;BME280;39432;51.902;10.844;2023-09-19T05:33:37;98859.31;;;15.98;100.00
53546;BME280;39432;51.902;10.844;2023-09-19T05:36:27;98859.63;;;15.97;100.00
53546;BME280;39432;51.902;10.844;2023-09-19T05:39:21;98857.78;;;15.92;100.00
53546;BME280;39432;51.902;10.844;2023-09-19T05:42:11;98864.97;;;15.93;100.00
53546;BME280;39432;51.902;10.844;2023-09-19T05:45:01;98858.50;;;15.98;100.00
53546;BME280;39432;51.902;10.844;2023-09-19T05:47:53;98876.13;;;15.88;100.00
53546;BME280;39432;51.902;10.844;2023-09-19T05:50:54;98867.22;;;15.91;100.00
53546;BME280;39432;51.902;10.844;2023-09-19T05:53:45;98873.09;;;15.98;100.00
53546;BME280;39432;51.902;10.844;2023-09-19T05:56:36;98879.47;;;15.99;100.00
53546;BME280;39432;51.902;10.844;2023-09-19T05:59:26;98888.44;;;16.04;100.00
53546;BME280;39432;51.902;10.844;2023-09-19T06:02:17;98896.41;;;15.92;100.00
53546;BME280;39432;51.902;10.844;2023-09-19T06:05:08;98901.78;;;15.89;100.00
53546;BME280;39432;51.902;10.844;2023-09-19T06:08:02;98908.81;;;15.81;100.00
53546;BME280;39432;51.902;10.844;2023-09-19T06:10:55;98902.31;;;15.77;100.00
53546;BME280;39432;51.902;10.844;2023-09-19T06:13:47;98907.28;;;15.75;100.00
53546;BME280;39432;51.902;10.844;2023-09-19T06:16:38;98917.94;;;15.68;100.00
53546;BME280;39432;51.902;10.844;2023-09-19T06:19:29;98926.72;;;15.70;100.00
53546;BME280;39432;51.902;10.844;2023-09-19T06:22:20;98921.47;;;15.54;100.00
53546;BME280;39432;51.902;10.844;2023-09-19T06:25:15;98940.22;;;15.71;100.00
53546;BME280;39432;51.902;10.844;2023-09-19T06:28:07;98946.91;;;15.51;100.00
53546;BME280;39432;51.902;10.844;2023-09-19T06:31:01;98951.00;;;15.54;100.00
53546;BME280;39432;51.902;10.844;2023-09-19T06:33:57;98959.38;;;15.49;100.00
53546;BME280;39432;51.902;10.844;2023-09-19T06:36:47;98938.16;;;15.49;100.00
53546;BME280;39432;51.902;10.844;2023-09-19T06:39:38;98936.28;;;15.59;100.00
53546;BME280;39432;51.902;10.844;2023-09-19T06:42:31;98942.63;;;15.45;100.00
53546;BME280;39432;51.902;10.844;2023-09-19T06:45:22;98938.34;;;15.39;100.00
53546;BME280;39432;51.902;10.844;2023-09-19T06:48:14;98942.84;;;15.35;100.00
53546;BME280;39432;51.902;10.844;2023-09-19T06:51:06;98961.19;;;15.26;100.00
53546;BME280;39432;51.902;10.844;2023-09-19T06:53:57;98964.66;;;15.18;100.00
53546;BME280;39432;51.902;10.844;2023-09-19T06:56:47;98965.06;;;15.25;100.00
53546;BME280;39432;51.902;10.844;2023-09-19T06:59:40;98975.78;;;15.26;100.00
53546;BME280;39432;51.902;10.844;2023-09-19T07:02:32;98987.53;;;15.32;100.00
53546;BME280;39432;51.902;10.844;2023-09-19T07:05:22;98975.53;;;15.55;100.00
53546;BME280;39432;51.902;10.844;2023-09-19T07:08:13;98981.38;;;15.68;100.00
53546;BME280;39432;51.902;10.844;2023-09-19T07:11:03;98985.06;;;15.77;100.00
53546;BME280;39432;51.902;10.844;2023-09-19T07:13:53;98975.50;;;15.97;100.00
53546;BME280;39432;51.902;10.844;2023-09-19T07:16:46;98981.19;;;16.14;100.00
53546;BME280;39432;51.902;10.844;2023-09-19T07:19:36;98976.38;;;16.20;100.00
53546;BME280;39432;51.902;10.844;2023-09-19T07:22:27;98974.97;;;16.08;100.00
53546;BME280;39432;51.902;10.844;2023-09-19T07:25:18;98980.66;;;16.26;100.00
53546;BME280;39432;51.902;10.844;2023-09-19T07:28:10;98980.16;;;16.24;100.00
53546;BME280;39432;51.902;10.844;2023-09-19T07:31:01;98985.16;;;16.36;100.00
53546;BME280;39432;51.902;10.844;2023-09-19T07:33:55;98984.09;;;16.45;100.00
53546;BME280;39432;51.902;10.844;2023-09-19T07:36:45;98978.31;;;16.33;100.00
53546;BME280;39432;51.902;10.844;2023-09-19T07:39:35;98976.06;;;16.57;100.00
53546;BME280;39432;51.902;10.844;2023-09-19T07:42:28;98969.81;;;16.43;100.00
53546;BME280;39432;51.902;10.844;2023-09-19T07:45:19;98963.44;;;16.79;100.00
53546;BME280;39432;51.902;10.844;2023-09-19T07:48:09;98961.81;;;17.80;100.00
53546;BME280;39432;51.902;10.844;2023-09-19T07:51:05;98977.69;;;18.05;100.00
53546;BME280;39432;51.902;10.844;2023-09-19T07:53:56;98973.69;;;18.46;96.93
53546;BME280;39432;51.902;10.844;2023-09-19T07:56:46;98977.69;;;18.05;96.50
53546;BME280;39432;51.902;10.844;2023-09-19T07:59:37;98985.81;;;17.53;99.73
53546;BME280;39432;51.902;10.844;2023-09-19T08:02:29;98992.56;;;17.38;100.00
53546;BME280;39432;51.902;10.844;2023-09-19T08:05:19;99002.47;;;17.31;100.00
53546;BME280;39432;51.902;10.844;2023-09-19T08:08:13;99004.53;;;17.25;100.00
53546;BME280;39432;51.902;10.844;2023-09-19T08:11:03;99013.09;;;17.46;100.00
53546;BME280;39432;51.902;10.844;2023-09-19T08:13:58;99003.16;;;17.45;100.00
53546;BME280;39432;51.902;10.844;2023-09-19T08:16:49;99004.44;;;17.39;100.00
53546;BME280;39432;51.902;10.844;2023-09-19T08:19:39;99003.34;;;17.18;99.87
53546;BME280;39432;51.902;10.844;2023-09-19T08:22:32;99008.38;;;17.16;99.81
53546;BME280;39432;51.902;10.844;2023-09-19T08:25:25;99019.66;;;17.28;98.86
53546;BME280;39432;51.902;10.844;2023-09-19T08:28:16;99013.38;;;17.13;100.00
53546;BME280;39432;51.902;10.844;2023-09-19T08:31:11;99029.00;;;17.09;100.00
53546;BME280;39432;51.902;10.844;2023-09-19T08:34:04;99038.66;;;17.21;100.00
53546;BME280;39432;51.902;10.844;2023-09-19T08:36:54;99038.03;;;17.01;100.00
53546;BME280;39432;51.902;10.844;2023-09-19T08:39:45;99035.91;;;17.21;100.00
53546;BME280;39432;51.902;10.844;2023-09-19T08:42:51;99044.13;;;17.12;100.00
53546;BME280;39432;51.902;10.844;2023-09-19T08:45:42;99034.28;;;17.20;100.00
53546;BME280;39432;51.902;10.844;2023-09-19T08:48:34;99043.50;;;17.46;100.00
53546;BME280;39432;51.902;10.844;2023-09-19T08:51:27;99050.97;;;17.37;100.00
53546;BME280;39432;51.902;10.844;2023-09-19T08:54:21;99042.22;;;17.44;100.00
53546;BME280;39432;51.902;10.844;2023-09-19T08:57:16;99051.75;;;17.69;100.00
53546;BME280;39432;51.902;10.844;2023-09-19T09:00:13;99055.75;;;17.76;100.00
53546;BME280;39432;51.902;10.844;2023-09-19T09:03:06;99049.69;;;17.43;100.00
53546;BME280;39432;51.902;10.844;2023-09-19T09:06:00;99053.59;;;18.04;100.00
53546;BME280;39432;51.902;10.844;2023-09-19T09:08:51;99045.97;;;17.79;100.00
53546;BME280;39432;51.902;10.844;2023-09-19T09:11:42;99055.69;;;18.07;100.00
53546;BME280;39432;51.902;10.844;2023-09-19T09:14:32;99050.47;;;17.97;99.57
53546;BME280;39432;51.902;10.844;2023-09-19T09:17:25;99048.66;;;17.93;99.74
53546;BME280;39432;51.902;10.844;2023-09-19T09:20:16;99053.41;;;18.01;98.67
53546;BME280;39432;51.902;10.844;2023-09-19T09:23:07;99044.41;;;17.95;98.82
53546;BME280;39432;51.902;10.844;2023-09-19T09:25:59;99036.75;;;18.40;98.01
53546;BME280;39432;51.902;10.844;2023-09-19T09:28:50;99041.63;;;18.52;93.04
53546;BME280;39432;51.902;10.844;2023-09-19T09:31:43;99039.63;;;18.27;91.43
53546;BME280;39432;51.902;10.844;2023-09-19T09:34:36;99034.13;;;18.44;90.00
53546;BME280;39432;51.902;10.844;2023-09-19T09:37:28;99039.94;;;18.16;90.54
53546;BME280;39432;51.902;10.844;2023-09-19T09:40:19;99044.31;;;18.09;90.88
53546;BME280;39432;51.902;10.844;2023-09-19T09:43:28;99033.59;;;18.33;90.26
53546;BME280;39432;51.902;10.844;2023-09-19T09:46:22;99043.50;;;18.08;89.33
53546;BME280;39432;51.902;10.844;2023-09-19T09:49:26;99035.41;;;18.38;89.55
53546;BME280;39432;51.902;10.844;2023-09-19T09:52:24;99030.38;;;18.49;89.71
53546;BME280;39432;51.902;10.844;2023-09-19T09:55:15;99033.31;;;18.52;87.69
53546;BME280;39432;51.902;10.844;2023-09-19T09:58:17;99044.94;;;18.72;88.77
53546;BME280;39432;51.902;10.844;2023-09-19T10:01:12;99039.69;;;18.53;89.91
53546;BME280;39432;51.902;10.844;2023-09-19T10:04:03;99046.81;;;18.45;90.82
53546;BME280;39432;51.902;10.844;2023-09-19T10:06:54;99039.22;;;18.77;89.48
53546;BME280;39432;51.902;10.844;2023-09-19T10:09:50;99044.28;;;18.83;87.95
53546;BME280;39432;51.902;10.844;2023-09-19T10:12:45;99044.47;;;18.95;88.34
53546;BME280;39432;51.902;10.844;2023-09-19T10:15:37;99044.56;;;19.16;87.81
53546;BME280;39432;51.902;10.844;2023-09-19T10:18:29;99037.06;;;19.26;86.25
53546;BME280;39432;51.902;10.844;2023-09-19T10:21:24;99049.16;;;19.30;87.85
53546;BME280;39432;51.902;10.844;2023-09-19T10:24:17;99049.00;;;19.09;86.30
53546;BME280;39432;51.902;10.844;2023-09-19T10:27:11;99047.03;;;19.18;86.06
53546;BME280;39432;51.902;10.844;2023-09-19T10:30:06;99039.38;;;19.06;87.84
53546;BME280;39432;51.902;10.844;2023-09-19T10:33:02;99043.47;;;19.09;88.72
53546;BME280;39432;51.902;10.844;2023-09-19T10:35:54;99040.69;;;19.00;87.44
53546;BME280;39432;51.902;10.844;2023-09-19T10:38:49;99050.16;;;18.82;87.27
53546;BME280;39432;51.902;10.844;2023-09-19T10:41:42;99042.94;;;19.15;88.32
53546;BME280;39432;51.902;10.844;2023-09-19T10:44:37;99044.09;;;19.14;87.51
53546;BME280;39432;51.902;10.844;2023-09-19T10:47:29;99043.56;;;19.47;87.43
53546;BME280;39432;51.902;10.844;2023-09-19T10:50:20;99049.44;;;19.37;85.80
53546;BME280;39432;51.902;10.844;2023-09-19T10:53:13;99050.94;;;19.17;87.07
53546;BME280;39432;51.902;10.844;2023-09-19T10:56:05;99049.78;;;19.27;88.78
53546;BME280;39432;51.902;10.844;2023-09-19T10:59:06;99060.38;;;19.51;86.80
53546;BME280;39432;51.902;10.844;2023-09-19T11:02:16;99062.63;;;20.04;85.79
53546;BME280;39432;51.902;10.844;2023-09-19T11:05:11;99054.66;;;19.47;83.02
53546;BME280;39432;51.902;10.844;2023-09-19T11:08:03;99054.00;;;19.97;84.13
53546;BME280;39432;51.902;10.844;2023-09-19T11:10:53;99051.41;;;19.45;83.65
53546;BME280;39432;51.902;10.844;2023-09-19T11:14:16;99060.47;;;19.71;84.97
53546;BME280;39432;51.902;10.844;2023-09-19T11:17:34;99050.06;;;19.51;83.33
53546;BME280;39432;51.902;10.844;2023-09-19T11:20:25;99045.47;;;19.55;79.08
53546;BME280;39432;51.902;10.844;2023-09-19T11:23:37;99042.56;;;19.60;80.28
53546;BME280;39432;51.902;10.844;2023-09-19T11:26:40;99040.28;;;19.62;79.79
53546;BME280;39432;51.902;10.844;2023-09-19T11:29:35;99028.81;;;19.55;80.65
53546;BME280;39432;51.902;10.844;2023-09-19T11:36:08;99038.09;;;19.77;75.57
53546;BME280;39432;51.902;10.844;2023-09-19T11:39:00;99041.03;;;19.71;76.69
53546;BME280;39432;51.902;10.844;2023-09-19T11:41:49;99041.13;;;19.92;76.14
53546;BME280;39432;51.902;10.844;2023-09-19T11:44:43;99040.41;;;20.04;78.86
53546;BME280;39432;51.902;10.844;2023-09-19T11:47:34;99046.72;;;20.51;76.54
53546;BME280;39432;51.902;10.844;2023-09-19T11:50:25;99050.00;;;20.45;74.71
53546;BME280;39432;51.902;10.844;2023-09-19T11:53:20;99054.50;;;20.29;72.49
53546;BME280;39432;51.902;10.844;2023-09-19T11:56:11;99055.34;;;20.20;74.48
53546;BME280;39432;51.902;10.844;2023-09-19T11:59:02;99053.00;;;19.63;74.23
53546;BME280;39432;51.902;10.844;2023-09-19T12:01:54;99048.00;;;20.24;75.95
53546;BME280;39432;51.902;10.844;2023-09-19T12:04:45;99047.50;;;19.93;76.02
53546;BME280;39432;51.902;10.844;2023-09-19T12:07:42;99049.09;;;20.03;76.44
53546;BME280;39432;51.902;10.844;2023-09-19T12:10:45;99061.09;;;19.86;76.48
53546;BME280;39432;51.902;10.844;2023-09-19T12:13:35;99052.41;;;19.87;76.27
53546;BME280;39432;51.902;10.844;2023-09-19T12:16:28;99055.25;;;19.79;76.32
53546;BME280;39432;51.902;10.844;2023-09-19T12:19:22;99044.59;;;19.89;76.22
53546;BME280;39432;51.902;10.844;2023-09-19T12:22:12;99036.81;;;19.74;75.58
53546;BME280;39432;51.902;10.844;2023-09-19T12:25:05;99030.97;;;19.49;75.74
53546;BME280;39432;51.902;10.844;2023-09-19T12:28:01;99039.09;;;19.55;74.85
53546;BME280;39432;51.902;10.844;2023-09-19T12:30:52;99041.75;;;19.98;74.87
53546;BME280;39432;51.902;10.844;2023-09-19T12:33:42;99049.75;;;19.99;76.82
53546;BME280;39432;51.902;10.844;2023-09-19T12:36:33;99040.31;;;19.92;75.26
53546;BME280;39432;51.902;10.844;2023-09-19T12:39:25;99041.31;;;19.87;75.56
53546;BME280;39432;51.902;10.844;2023-09-19T12:42:18;99034.84;;;19.74;72.63
53546;BME280;39432;51.902;10.844;2023-09-19T12:45:12;99025.81;;;20.16;72.92
53546;BME280;39432;51.902;10.844;2023-09-19T12:48:20;99028.41;;;19.83;75.17
53546;BME280;39432;51.902;10.844;2023-09-19T12:51:17;99032.38;;;20.41;73.87
53546;BME280;39432;51.902;10.844;2023-09-19T12:54:10;99042.44;;;20.24;73.23
53546;BME280;39432;51.902;10.844;2023-09-19T12:57:02;99028.22;;;19.96;72.73
53546;BME280;39432;51.902;10.844;2023-09-19T12:59:53;99019.44;;;20.15;73.52
53546;BME280;39432;51.902;10.844;2023-09-19T13:06:13;99017.03;;;20.35;72.30
53546;BME280;39432;51.902;10.844;2023-09-19T13:09:08;99013.69;;;20.50;69.49
53546;BME280;39432;51.902;10.844;2023-09-19T13:11:58;99010.78;;;20.38;70.59
53546;BME280;39432;51.902;10.844;2023-09-19T13:15:07;99011.84;;;20.75;69.93
53546;BME280;39432;51.902;10.844;2023-09-19T13:18:11;99012.09;;;21.03;68.87
53546;BME280;39432;51.902;10.844;2023-09-19T13:21:08;99009.06;;;20.54;69.21
53546;BME280;39432;51.902;10.844;2023-09-19T13:24:21;99013.09;;;20.98;69.94
53546;BME280;39432;51.902;10.844;2023-09-19T13:27:14;99012.34;;;20.56;68.42
53546;BME280;39432;51.902;10.844;2023-09-19T13:30:06;99000.41;;;20.56;68.72
53546;BME280;39432;51.902;10.844;2023-09-19T13:33:08;99015.44;;;20.75;69.53
53546;BME280;39432;51.902;10.844;2023-09-19T13:35:59;99011.94;;;20.66;68.09
53546;BME280;39432;51.902;10.844;2023-09-19T13:38:49;99006.44;;;20.58;68.36
53546;BME280;39432;51.902;10.844;2023-09-19T13:41:44;98993.09;;;20.72;67.68
53546;BME280;39432;51.902;10.844;2023-09-19T13:44:35;98985.47;;;21.14;69.27
53546;BME280;39432;51.902;10.844;2023-09-19T13:47:25;98985.75;;;21.21;68.35
53546;BME280;39432;51.902;10.844;2023-09-19T13:50:16;98984.38;;;20.94;66.93
53546;BME280;39432;51.902;10.844;2023-09-19T13:53:11;98992.13;;;20.89;67.46
53546;BME280;39432;51.902;10.844;2023-09-19T13:56:02;98999.13;;;20.23;69.28
53546;BME280;39432;51.902;10.844;2023-09-19T13:58:54;98999.91;;;20.53;68.22
53546;BME280;39432;51.902;10.844;2023-09-19T14:01:45;98991.38;;;20.59;68.39
53546;BME280;39432;51.902;10.844;2023-09-19T14:04:35;98987.25;;;20.65;65.88
53546;BME280;39432;51.902;10.844;2023-09-19T14:07:26;98982.63;;;20.90;66.39
53546;BME280;39432;51.902;10.844;2023-09-19T14:10:16;98980.13;;;21.09;66.94
53546;BME280;39432;51.902;10.844;2023-09-19T14:13:06;98982.06;;;20.75;66.80
53546;BME280;39432;51.902;10.844;2023-09-19T14:16:03;98976.25;;;20.68;68.77
53546;BME280;39432;51.902;10.844;2023-09-19T14:18:54;98991.53;;;20.33;69.44
53546;BME280;39432;51.902;10.844;2023-09-19T14:21:45;99000.13;;;20.19;72.06
53546;BME280;39432;51.902;10.844;2023-09-19T14:24:36;98990.56;;;20.08;72.90
53546;BME280;39432;51.902;10.844;2023-09-19T14:27:28;98991.13;;;20.43;72.25
53546;BME280;39432;51.902;10.844;2023-09-19T14:30:18;98993.28;;;20.46;72.30
53546;BME280;39432;51.902;10.844;2023-09-19T14:33:11;98992.31;;;20.84;70.79
53546;BME280;39432;51.902;10.844;2023-09-19T14:36:03;98977.47;;;20.59;71.19
53546;BME280;39432;51.902;10.844;2023-09-19T14:38:56;98980.72;;;20.82;71.28
53546;BME280;39432;51.902;10.844;2023-09-19T14:41:46;98976.09;;;20.86;71.44
53546;BME280;39432;51.902;10.844;2023-09-19T14:44:37;98965.56;;;20.58;70.77
53546;BME280;39432;51.902;10.844;2023-09-19T14:47:27;98964.19;;;20.64;72.08
53546;BME280;39432;51.902;10.844;2023-09-19T14:50:22;98970.03;;;20.50;72.56
53546;BME280;39432;51.902;10.844;2023-09-19T14:53:12;98969.16;;;20.92;71.64
53546;BME280;39432;51.902;10.844;2023-09-19T14:56:03;98971.06;;;20.67;71.84
53546;BME280;39432;51.902;10.844;2023-09-19T14:58:55;98968.28;;;20.46;73.66
53546;BME280;39432;51.902;10.844;2023-09-19T15:01:45;98966.25;;;20.55;73.71
53546;BME280;39432;51.902;10.844;2023-09-19T15:04:37;98964.28;;;20.26;72.61